createdAt,value
2023-05-14T00:01:05.486Z,8.70
2023-05-14T00:03:33.728Z,7.80
2023-05-14T00:06:01.948Z,7.90
2023-05-14T00:08:30.013Z,7.70
2023-05-14T00:10:59.113Z,7.50
2023-05-14T00:13:27.145Z,8.20
2023-05-14T00:15:55.255Z,7.50
2023-05-14T00:18:23.381Z,8.10
2023-05-14T00:20:54.973Z,6.40
2023-05-14T00:23:24.309Z,7.70
2023-05-14T00:25:52.460Z,7.50
2023-05-14T00:28:21.289Z,8.00
2023-05-14T00:30:49.836Z,8.30
2023-05-14T00:33:18.204Z,7.80
2023-05-14T00:35:46.325Z,7.90
2023-05-14T00:38:17.813Z,7.70
2023-05-14T00:40:51.383Z,7.00
2023-05-14T00:43:21.299Z,7.80
2023-05-14T00:45:54.589Z,8.60
2023-05-14T00:48:23.568Z,8.30
2023-05-14T00:50:52.195Z,9.80
2023-05-14T00:53:21.140Z,9.30
2023-05-14T00:55:50.510Z,8.20
2023-05-14T00:58:19.734Z,9.30
2023-05-14T01:00:48.161Z,8.20
2023-05-14T01:03:16.633Z,9.30
2023-05-14T01:06:01.157Z,10.10
2023-05-14T01:08:32.422Z,9.30
2023-05-14T01:11:06.735Z,8.60
2023-05-14T01:13:48.805Z,8.70
2023-05-14T01:16:20.367Z,7.70
2023-05-14T01:18:52.198Z,8.50
2023-05-14T01:21:26.135Z,8.60
2023-05-14T01:23:54.653Z,7.90
2023-05-14T01:26:23.228Z,7.70
2023-05-14T01:28:53.284Z,7.50
2023-05-14T01:31:28.145Z,8.10
2023-05-14T01:33:59.411Z,7.20
2023-05-14T01:36:30.147Z,7.20
2023-05-14T01:38:59.137Z,7.10
2023-05-14T01:41:28.414Z,6.70
2023-05-14T01:43:57.559Z,7.50
2023-05-14T01:46:25.968Z,7.00
2023-05-14T01:48:54.496Z,6.90
2023-05-14T01:51:22.887Z,7.70
2023-05-14T01:53:51.264Z,7.80
2023-05-14T01:56:22.061Z,7.10
2023-05-14T01:58:50.370Z,7.60
2023-05-14T02:01:18.756Z,8.10
2023-05-14T02:03:46.918Z,7.70
2023-05-14T02:06:14.995Z,7.40
2023-05-14T02:08:43.239Z,8.00
2023-05-14T02:11:11.832Z,8.70
2023-05-14T02:13:40.398Z,7.90
2023-05-14T02:16:09.180Z,8.40
2023-05-14T02:18:37.321Z,7.60
2023-05-14T02:21:05.548Z,7.00
2023-05-14T02:23:40.985Z,8.20
2023-05-14T02:26:12.540Z,7.00
2023-05-14T02:28:40.809Z,6.90
2023-05-14T02:31:08.988Z,6.50
2023-05-14T02:33:37.138Z,6.60
2023-05-14T02:36:06.298Z,6.80
2023-05-14T02:38:34.717Z,7.10
2023-05-14T02:41:02.855Z,6.50
2023-05-14T02:43:30.876Z,6.90
2023-05-14T02:45:58.957Z,6.80
2023-05-14T02:48:26.996Z,7.60
2023-05-14T02:50:55.031Z,8.10
2023-05-14T02:53:23.209Z,7.70
2023-05-14T02:55:51.311Z,8.00
2023-05-14T02:58:19.423Z,7.30
2023-05-14T03:00:54.074Z,8.20
2023-05-14T03:03:22.754Z,8.00
2023-05-14T03:05:51.299Z,8.50
2023-05-14T03:08:19.804Z,9.70
2023-05-14T03:10:48.147Z,8.70
2023-05-14T03:13:18.006Z,7.70
2023-05-14T03:15:47.197Z,7.70
2023-05-14T03:18:15.526Z,6.10
2023-05-14T03:20:44.000Z,6.60
2023-05-14T03:23:13.383Z,6.50
2023-05-14T03:25:41.660Z,6.80
2023-05-14T03:28:10.048Z,6.80
2023-05-14T03:30:38.489Z,7.30
2023-05-14T03:33:07.139Z,6.70
2023-05-14T03:35:35.728Z,7.00
2023-05-14T03:38:04.381Z,7.30
2023-05-14T03:40:33.024Z,7.20
2023-05-14T03:43:01.598Z,7.30
2023-05-14T03:45:30.829Z,7.20
2023-05-14T03:48:00.413Z,7.10
2023-05-14T03:50:28.800Z,7.40
2023-05-14T03:52:56.805Z,8.30
2023-05-14T03:55:24.874Z,7.00
2023-05-14T03:57:53.064Z,7.10
2023-05-14T04:00:21.811Z,6.70
2023-05-14T04:02:50.008Z,6.10
2023-05-14T04:05:18.918Z,7.30
2023-05-14T04:07:47.575Z,6.50
2023-05-14T04:10:15.930Z,6.60
2023-05-14T04:12:44.431Z,6.60
2023-05-14T04:15:13.042Z,7.10
2023-05-14T04:17:41.622Z,6.80
2023-05-14T04:20:10.667Z,6.90
2023-05-14T04:22:38.624Z,7.00
2023-05-14T04:25:07.104Z,7.60
2023-05-14T04:27:35.402Z,7.40
2023-05-14T04:30:03.883Z,7.50
2023-05-14T04:32:31.855Z,7.20
2023-05-14T04:35:00.007Z,7.10
2023-05-14T04:37:28.080Z,7.10
2023-05-14T04:39:56.068Z,7.00
2023-05-14T04:42:24.330Z,6.30
2023-05-14T04:44:52.604Z,6.60
2023-05-14T04:47:21.599Z,7.60
2023-05-14T04:49:50.108Z,6.90
2023-05-14T04:52:18.398Z,6.40
2023-05-14T04:54:46.617Z,6.80
2023-05-14T04:57:14.890Z,6.10
2023-05-14T04:59:43.236Z,6.00
2023-05-14T05:02:11.817Z,5.80
2023-05-14T05:04:40.756Z,5.60
2023-05-14T05:07:09.101Z,6.00
2023-05-14T05:09:37.491Z,5.50
2023-05-14T05:12:06.888Z,5.40
2023-05-14T05:14:35.076Z,6.00
2023-05-14T05:17:03.108Z,6.10
2023-05-14T05:19:42.570Z,7.10
2023-05-14T05:22:12.122Z,5.00
2023-05-14T05:24:40.188Z,5.20
2023-05-14T05:27:08.753Z,5.10
2023-05-14T05:29:36.954Z,4.60
2023-05-14T05:32:06.042Z,5.20
2023-05-14T05:34:35.116Z,4.50
2023-05-14T05:37:03.458Z,5.20
2023-05-14T05:39:35.196Z,5.40
2023-05-14T05:42:04.042Z,4.40
2023-05-14T05:44:32.138Z,5.30
2023-05-14T05:47:00.548Z,5.00
2023-05-14T05:49:28.854Z,5.00
2023-05-14T05:51:57.159Z,5.20
2023-05-14T05:54:25.590Z,4.80
2023-05-14T05:56:53.617Z,5.30
2023-05-14T05:59:22.039Z,4.40
2023-05-14T06:01:50.198Z,5.20
2023-05-14T06:04:18.226Z,4.60
2023-05-14T06:06:46.389Z,3.50
2023-05-14T06:09:14.652Z,3.20
2023-05-14T06:11:42.958Z,3.10
2023-05-14T06:14:11.030Z,3.30
2023-05-14T06:16:39.139Z,3.10
2023-05-14T06:19:08.637Z,3.30
2023-05-14T06:21:36.766Z,3.30
2023-05-14T06:24:05.583Z,3.40
2023-05-14T06:26:34.437Z,3.70
2023-05-14T06:29:02.626Z,3.50
2023-05-14T06:31:30.818Z,3.40
2023-05-14T06:33:58.891Z,3.50
2023-05-14T06:36:26.805Z,3.60
2023-05-14T06:38:55.072Z,3.20
2023-05-14T06:41:23.193Z,3.70
2023-05-14T06:43:51.368Z,3.90
2023-05-14T06:46:19.465Z,3.30
2023-05-14T06:48:47.637Z,3.50
2023-05-14T06:51:15.927Z,3.70
2023-05-14T06:53:44.032Z,3.70
2023-05-14T06:56:13.749Z,4.10
2023-05-14T06:58:41.831Z,3.40
2023-05-14T07:01:10.834Z,3.30
2023-05-14T07:03:39.421Z,3.20
2023-05-14T07:06:07.743Z,3.20
2023-05-14T07:08:36.228Z,3.10
2023-05-14T07:11:04.450Z,2.90
2023-05-14T07:13:32.776Z,3.10
2023-05-14T07:16:01.111Z,3.10
2023-05-14T07:18:29.512Z,3.30
2023-05-14T07:20:57.726Z,3.80
2023-05-14T07:23:25.960Z,3.30
2023-05-14T07:25:54.385Z,3.10
2023-05-14T07:28:22.456Z,3.10
2023-05-14T07:30:50.742Z,3.10
2023-05-14T07:33:18.764Z,3.10
2023-05-14T07:35:47.489Z,3.20
2023-05-14T07:38:16.877Z,2.90
2023-05-14T07:40:45.306Z,3.20
2023-05-14T07:43:14.785Z,2.70
2023-05-14T07:45:43.252Z,3.10
2023-05-14T07:48:12.165Z,3.00
2023-05-14T07:50:41.036Z,3.30
2023-05-14T07:53:09.453Z,3.00
2023-05-14T07:55:37.671Z,3.20
2023-05-14T07:58:06.810Z,3.60
2023-05-14T08:00:35.098Z,3.20
2023-05-14T08:03:03.904Z,3.40
2023-05-14T08:05:33.177Z,3.30
2023-05-14T08:08:01.849Z,3.00
2023-05-14T08:10:30.485Z,3.20
2023-05-14T08:12:59.051Z,3.20
2023-05-14T08:15:28.022Z,3.20
2023-05-14T08:17:56.544Z,3.70
2023-05-14T08:20:25.185Z,3.60
2023-05-14T08:22:53.716Z,3.90
2023-05-14T08:25:21.817Z,3.30
2023-05-14T08:27:50.724Z,3.60
2023-05-14T08:30:18.861Z,3.30
2023-05-14T08:32:47.075Z,3.50
2023-05-14T08:35:15.364Z,3.00
2023-05-14T08:37:43.609Z,2.90
2023-05-14T08:40:12.771Z,3.00
2023-05-14T08:42:41.737Z,3.00
2023-05-14T08:45:21.416Z,2.90
2023-05-14T08:47:52.095Z,3.40
2023-05-14T08:50:23.015Z,3.20
2023-05-14T08:52:53.175Z,3.00
2023-05-14T08:55:21.411Z,3.30
2023-05-14T08:57:49.542Z,2.90
2023-05-14T09:00:18.911Z,3.20
2023-05-14T09:02:48.729Z,2.90
2023-05-14T09:05:19.164Z,2.80
2023-05-14T09:07:47.235Z,3.20
2023-05-14T09:10:16.327Z,3.00
2023-05-14T09:12:44.863Z,3.20
2023-05-14T09:15:13.258Z,3.50
2023-05-14T09:17:41.585Z,3.10
2023-05-14T09:20:13.011Z,3.00
2023-05-14T09:22:41.322Z,2.90
2023-05-14T09:25:12.530Z,3.00
2023-05-14T09:27:41.113Z,2.70
2023-05-14T09:30:10.766Z,2.80
2023-05-14T09:32:44.375Z,2.90
2023-05-14T09:35:24.963Z,3.00
2023-05-14T09:37:55.220Z,2.70
2023-05-14T09:40:24.660Z,2.70
2023-05-14T09:42:57.748Z,3.70
2023-05-14T09:45:26.293Z,2.90
2023-05-14T09:47:54.679Z,2.80
2023-05-14T09:50:23.331Z,2.90
2023-05-14T09:52:51.829Z,3.30
2023-05-14T09:55:21.096Z,2.80
2023-05-14T09:57:50.209Z,4.10
2023-05-14T10:00:18.861Z,3.00
2023-05-14T10:02:48.141Z,2.80
2023-05-14T10:05:16.879Z,2.80
2023-05-14T10:07:49.474Z,2.50
2023-05-14T10:10:20.473Z,3.20
2023-05-14T10:13:04.869Z,2.70
2023-05-14T10:15:49.577Z,2.40
2023-05-14T10:18:24.414Z,2.40
2023-05-14T10:21:04.322Z,2.50
2023-05-14T10:23:33.568Z,2.60
2023-05-14T10:26:02.135Z,2.60
2023-05-14T10:28:32.328Z,2.40
2023-05-14T10:31:01.127Z,2.30
2023-05-14T10:33:29.440Z,2.80
2023-05-14T10:36:02.355Z,2.60
2023-05-14T10:38:33.758Z,3.20
2023-05-14T10:41:13.126Z,2.80
2023-05-14T10:43:43.032Z,3.00
2023-05-14T10:46:13.280Z,2.60
2023-05-14T10:48:43.566Z,2.70
2023-05-14T10:51:13.195Z,2.50
2023-05-14T10:53:44.661Z,2.60
2023-05-14T10:56:15.131Z,2.80
2023-05-14T10:58:45.919Z,2.70
2023-05-14T11:01:14.623Z,2.50
2023-05-14T11:03:46.518Z,2.50
2023-05-14T11:06:16.440Z,2.40
2023-05-14T11:08:46.768Z,2.40
2023-05-14T11:11:15.162Z,2.40
2023-05-14T11:13:44.974Z,2.60
2023-05-14T11:16:22.638Z,2.50
2023-05-14T11:19:04.591Z,2.30
2023-05-14T11:21:34.081Z,2.00
2023-05-14T11:24:02.459Z,2.50
2023-05-14T11:26:32.262Z,2.30
2023-05-14T11:29:01.637Z,2.60
2023-05-14T11:31:31.858Z,3.20
2023-05-14T11:34:01.205Z,2.50
2023-05-14T11:36:29.758Z,2.60
2023-05-14T11:38:57.980Z,2.40
2023-05-14T11:41:28.164Z,2.30
2023-05-14T11:43:56.324Z,2.70
2023-05-14T11:46:26.186Z,2.20
2023-05-14T11:48:54.329Z,2.10
2023-05-14T11:51:23.512Z,2.30
2023-05-14T11:53:51.736Z,2.40
2023-05-14T11:56:21.945Z,2.20
2023-05-14T11:58:56.287Z,2.70
2023-05-14T12:01:25.430Z,2.20
2023-05-14T12:03:53.659Z,2.20
2023-05-14T12:06:22.113Z,2.20
2023-05-14T12:08:51.194Z,2.50
2023-05-14T12:11:22.658Z,2.10
2023-05-14T12:13:53.039Z,2.50
2023-05-14T12:16:21.763Z,2.40
2023-05-14T12:18:49.970Z,2.30
2023-05-14T12:21:19.767Z,2.40
2023-05-14T12:23:56.751Z,2.20
2023-05-14T12:26:27.425Z,2.40
2023-05-14T12:29:03.766Z,2.70
2023-05-14T12:31:32.673Z,2.20
2023-05-14T12:34:01.426Z,2.60
2023-05-14T12:36:32.735Z,2.70
2023-05-14T12:39:03.801Z,2.60
2023-05-14T12:41:32.403Z,2.30
2023-05-14T12:44:01.320Z,3.00
2023-05-14T12:46:30.520Z,2.50
2023-05-14T12:48:58.882Z,2.20
2023-05-14T12:51:27.840Z,2.40
2023-05-14T12:53:56.200Z,2.40
2023-05-14T12:56:28.618Z,2.20
2023-05-14T12:58:57.305Z,2.40
2023-05-14T13:01:25.777Z,2.30
2023-05-14T13:03:56.966Z,2.40
2023-05-14T13:06:26.098Z,2.40
2023-05-14T13:08:55.051Z,2.20
2023-05-14T13:11:24.077Z,2.70
2023-05-14T13:13:52.328Z,2.70
2023-05-14T13:16:20.963Z,2.80
2023-05-14T13:18:49.407Z,2.60
2023-05-14T13:21:17.935Z,2.30
2023-05-14T13:23:46.564Z,2.70
2023-05-14T13:26:15.135Z,3.00
2023-05-14T13:28:43.447Z,3.00
2023-05-14T13:31:14.868Z,3.30
2023-05-14T13:33:44.840Z,3.10
2023-05-14T13:36:15.038Z,3.20
2023-05-14T13:38:43.469Z,3.00
2023-05-14T13:41:12.286Z,2.90
2023-05-14T13:43:40.742Z,3.20
2023-05-14T13:46:09.503Z,3.30
2023-05-14T13:48:37.958Z,2.90
2023-05-14T13:51:06.220Z,3.50
2023-05-14T13:53:34.332Z,3.40
2023-05-14T13:56:02.602Z,3.40
2023-05-14T13:58:30.926Z,3.30
2023-05-14T14:00:59.270Z,3.40
2023-05-14T14:03:27.526Z,3.50
2023-05-14T14:05:55.932Z,3.50
2023-05-14T14:08:24.696Z,3.70
2023-05-14T14:10:55.704Z,3.30
2023-05-14T14:13:24.623Z,3.60
2023-05-14T14:15:53.068Z,3.00
2023-05-14T14:18:21.445Z,3.00
2023-05-14T14:20:49.864Z,2.50
2023-05-14T14:23:18.413Z,3.70
2023-05-14T14:25:46.687Z,2.50
2023-05-14T14:28:15.184Z,3.00
2023-05-14T14:30:44.122Z,2.70
2023-05-14T14:33:12.800Z,2.70
2023-05-14T14:35:40.941Z,3.20
2023-05-14T14:38:09.657Z,3.10
2023-05-14T14:40:38.115Z,2.70
2023-05-14T14:43:06.841Z,2.70
2023-05-14T14:45:35.523Z,2.40
2023-05-14T14:48:27.212Z,2.70
2023-05-14T14:50:55.993Z,2.80
2023-05-14T14:53:25.041Z,2.70
2023-05-14T14:55:53.511Z,2.50
2023-05-14T14:58:21.850Z,2.80
2023-05-14T15:00:57.649Z,2.60
2023-05-14T15:03:26.269Z,2.30
2023-05-14T15:05:54.854Z,2.50
2023-05-14T15:08:28.434Z,2.30
2023-05-14T15:10:57.750Z,2.60
2023-05-14T15:13:27.170Z,2.60
2023-05-14T15:15:55.366Z,2.50
2023-05-14T15:18:23.623Z,2.70
2023-05-14T15:20:52.942Z,3.40
2023-05-14T15:23:21.483Z,2.60
2023-05-14T15:25:50.152Z,2.90
2023-05-14T15:28:18.475Z,2.70
2023-05-14T15:30:48.637Z,2.60
2023-05-14T15:33:19.649Z,2.60
2023-05-14T15:35:48.372Z,2.80
2023-05-14T15:38:17.461Z,3.20
2023-05-14T15:40:46.054Z,3.00
2023-05-14T15:43:14.452Z,3.40
2023-05-14T15:45:45.994Z,3.40
2023-05-14T15:48:14.234Z,2.90
2023-05-14T15:50:42.653Z,3.00
2023-05-14T15:53:11.126Z,2.60
2023-05-14T15:55:39.465Z,3.00
2023-05-14T15:58:07.856Z,2.80
2023-05-14T16:00:36.059Z,2.20
2023-05-14T16:03:05.090Z,2.40
2023-05-14T16:05:33.355Z,3.00
2023-05-14T16:08:01.598Z,2.70
2023-05-14T16:10:30.664Z,2.90
2023-05-14T16:12:59.726Z,2.90
2023-05-14T16:15:28.515Z,3.10
2023-05-14T16:17:57.074Z,3.20
2023-05-14T16:20:25.576Z,3.60
2023-05-14T16:22:53.891Z,2.70
2023-05-14T16:25:22.352Z,3.70
2023-05-14T16:27:50.437Z,2.90
2023-05-14T16:30:18.555Z,3.60
2023-05-14T16:32:49.830Z,3.30
2023-05-14T16:35:18.261Z,4.10
2023-05-14T16:37:46.684Z,3.60
2023-05-14T16:40:16.388Z,3.80
2023-05-14T16:42:46.060Z,3.10
2023-05-14T16:45:16.430Z,3.10
2023-05-14T16:47:44.762Z,3.60
2023-05-14T16:50:12.947Z,3.30
2023-05-14T16:52:41.017Z,3.10
2023-05-14T16:55:09.616Z,3.70
2023-05-14T16:57:37.737Z,3.20
2023-05-14T17:00:06.785Z,3.20
2023-05-14T17:02:35.218Z,2.70
2023-05-14T17:05:04.186Z,2.90
2023-05-14T17:07:32.322Z,3.60
2023-05-14T17:10:00.809Z,2.70
2023-05-14T17:12:29.126Z,3.00
2023-05-14T17:14:57.548Z,2.70
2023-05-14T17:17:25.913Z,2.80
2023-05-14T17:19:53.955Z,3.10
2023-05-14T17:22:22.531Z,4.40
2023-05-14T17:24:50.782Z,10.10
2023-05-14T17:27:19.208Z,18.40
2023-05-14T17:29:51.208Z,10.50
2023-05-14T17:32:19.978Z,5.80
2023-05-14T17:34:48.126Z,4.40
2023-05-14T17:37:17.802Z,3.20
2023-05-14T17:39:47.955Z,3.50
2023-05-14T17:42:17.284Z,3.20
2023-05-14T17:44:45.867Z,3.20
2023-05-14T17:47:14.412Z,3.00
2023-05-14T17:49:42.764Z,3.20
2023-05-14T17:52:10.729Z,2.80
2023-05-14T17:54:38.834Z,2.70
2023-05-14T17:57:07.243Z,2.70
2023-05-14T17:59:35.917Z,2.40
2023-05-14T18:02:05.864Z,2.70
2023-05-14T18:04:34.415Z,2.80
2023-05-14T18:07:03.381Z,2.70
2023-05-14T18:09:32.002Z,2.30
2023-05-14T18:12:01.383Z,2.80
2023-05-14T18:14:30.523Z,2.80
2023-05-14T18:16:58.604Z,2.50
2023-05-14T18:19:27.004Z,3.00
2023-05-14T18:21:55.746Z,2.40
2023-05-14T18:24:23.929Z,2.80
2023-05-14T18:26:52.274Z,2.50
2023-05-14T18:29:20.591Z,2.70
2023-05-14T18:31:48.931Z,2.60
2023-05-14T18:34:17.858Z,2.40
2023-05-14T18:36:46.579Z,2.40
2023-05-14T18:39:14.848Z,2.40
2023-05-14T18:41:42.952Z,2.80
2023-05-14T18:44:11.118Z,2.60
2023-05-14T18:46:39.458Z,2.70
2023-05-14T18:49:07.907Z,2.80
2023-05-14T18:51:36.148Z,2.90
2023-05-14T18:54:04.329Z,2.90
2023-05-14T18:56:32.605Z,2.70
2023-05-14T18:59:00.665Z,3.00
2023-05-14T19:01:29.185Z,2.50
2023-05-14T19:03:57.393Z,2.80
2023-05-14T19:06:25.877Z,2.70
2023-05-14T19:08:54.365Z,2.70
2023-05-14T19:11:22.729Z,2.80
2023-05-14T19:13:50.807Z,2.60
2023-05-14T19:16:19.275Z,2.60
2023-05-14T19:18:47.539Z,2.60
2023-05-14T19:21:16.195Z,2.90
2023-05-14T19:23:44.292Z,2.90
2023-05-14T19:26:12.689Z,2.80
2023-05-14T19:28:40.752Z,2.40
2023-05-14T19:31:08.962Z,2.90
2023-05-14T19:33:37.347Z,2.60
2023-05-14T19:36:05.647Z,2.50
2023-05-14T19:38:33.829Z,3.00
2023-05-14T19:41:01.857Z,3.00
2023-05-14T19:43:29.818Z,2.40
2023-05-14T19:45:59.937Z,2.30
2023-05-14T19:48:29.445Z,2.80
2023-05-14T19:50:58.082Z,2.10
2023-05-14T19:53:29.812Z,2.80
2023-05-14T19:55:58.831Z,3.10
2023-05-14T19:58:26.944Z,3.10
2023-05-14T20:00:57.629Z,2.70
2023-05-14T20:03:26.576Z,3.20
2023-05-14T20:05:55.917Z,2.80
2023-05-14T20:08:25.067Z,2.80
2023-05-14T20:10:53.213Z,3.00
2023-05-14T20:13:23.145Z,2.70
2023-05-14T20:15:52.874Z,2.90
2023-05-14T20:18:20.954Z,3.10
2023-05-14T20:20:49.418Z,2.90
2023-05-14T20:23:18.751Z,2.80
2023-05-14T20:25:47.994Z,3.30
2023-05-14T20:28:16.107Z,3.30
2023-05-14T20:30:44.226Z,3.20
2023-05-14T20:33:13.543Z,2.70
2023-05-14T20:35:44.280Z,2.90
2023-05-14T20:38:13.523Z,2.70
2023-05-14T20:40:41.799Z,2.90
2023-05-14T20:43:10.274Z,2.70
2023-05-14T20:45:39.514Z,3.10
2023-05-14T20:48:10.676Z,3.40
2023-05-14T20:50:38.875Z,3.00
2023-05-14T20:53:07.128Z,3.10
2023-05-14T20:55:35.388Z,3.20
2023-05-14T20:58:04.377Z,3.30
2023-05-14T21:00:32.857Z,3.20
2023-05-14T21:03:01.246Z,3.30
2023-05-14T21:05:30.449Z,3.40
2023-05-14T21:07:58.644Z,3.10
2023-05-14T21:10:26.864Z,3.30
2023-05-14T21:12:55.234Z,3.40
2023-05-14T21:15:23.678Z,3.90
2023-05-14T21:17:51.981Z,3.70
2023-05-14T21:20:20.080Z,3.80
2023-05-14T21:22:48.132Z,3.00
2023-05-14T21:25:16.338Z,3.20
2023-05-14T21:27:44.377Z,3.20
2023-05-14T21:30:13.153Z,3.40
2023-05-14T21:32:41.527Z,4.10
2023-05-14T21:35:09.957Z,3.30
2023-05-14T21:37:39.898Z,3.50
2023-05-14T21:40:15.198Z,3.30
2023-05-14T21:42:43.446Z,3.30
2023-05-14T21:45:11.974Z,3.30
2023-05-14T21:47:40.521Z,3.30
2023-05-14T21:50:09.179Z,3.50
2023-05-14T21:52:38.345Z,3.40
2023-05-14T21:55:06.770Z,3.40
2023-05-14T21:57:35.026Z,3.00
2023-05-14T22:00:07.988Z,3.50
2023-05-14T22:02:36.268Z,3.20
2023-05-14T22:05:05.422Z,3.20
2023-05-14T22:07:33.679Z,3.40
2023-05-14T22:10:02.573Z,3.50
2023-05-14T22:12:30.653Z,3.60
2023-05-14T22:14:58.726Z,3.80
2023-05-14T22:17:28.411Z,3.10
2023-05-14T22:19:57.021Z,3.30
2023-05-14T22:22:25.425Z,3.00
2023-05-14T22:24:53.861Z,2.80
2023-05-14T22:27:22.491Z,3.40
2023-05-14T22:29:50.749Z,3.20
2023-05-14T22:32:18.770Z,3.20
2023-05-14T22:34:46.927Z,3.50
2023-05-14T22:37:15.846Z,3.60
2023-05-14T22:39:44.062Z,3.20
2023-05-14T22:42:12.230Z,3.60
2023-05-14T22:44:40.455Z,3.50
2023-05-14T22:47:08.591Z,3.00
2023-05-14T22:49:36.762Z,3.00
2023-05-14T22:52:05.898Z,3.20
2023-05-14T22:54:34.241Z,3.30
2023-05-14T22:57:03.488Z,3.10
2023-05-14T22:59:31.852Z,3.10
2023-05-14T23:02:00.087Z,3.30
2023-05-14T23:04:28.713Z,3.60
2023-05-14T23:06:58.265Z,3.10
2023-05-14T23:09:26.564Z,3.50
2023-05-14T23:11:55.165Z,3.80
2023-05-14T23:14:23.387Z,3.20
2023-05-14T23:16:52.171Z,3.20
2023-05-14T23:19:22.136Z,3.50
2023-05-14T23:21:51.092Z,3.50
2023-05-14T23:24:20.087Z,3.40
2023-05-14T23:26:48.380Z,3.30
2023-05-14T23:29:16.631Z,3.30
2023-05-14T23:31:44.764Z,3.40
2023-05-14T23:34:12.986Z,3.10
2023-05-14T23:36:41.425Z,3.10
2023-05-14T23:39:10.357Z,2.90
2023-05-14T23:41:38.815Z,3.10
2023-05-14T23:44:07.583Z,3.40
2023-05-14T23:46:36.190Z,3.20
2023-05-14T23:49:05.419Z,3.30
2023-05-14T23:51:33.926Z,3.60
2023-05-14T23:54:02.152Z,3.10
2023-05-14T23:56:30.787Z,3.30
2023-05-14T23:58:58.966Z,3.30
